Shinsei — JD3674 — position and weather

sailwx.info

Track history (hours):
 
Tides and Currents Weather Stations Pressure Air Temp Water Temp Dewpoint Dewpoint Depression Visibility Wind Speed Wind Dir Waves Ship Positions

Shinsei

Last reported at 2018-Feb-25 19:29 UTC. Time now 2018-Feb-25 19:34 UTC.
Position N 34°38' E 138°16'.

Length 74 m; draft 3.8 m.

Type: Cargo ship. MMSI: 431005241.

Date/timePositionNaut miles runAvg speedWind from/ knotsBaromVisibWave heightAir tempDewpointWater temp
2018-Feb-25 19:29N 34°38' E 138°16'4111.6
2018-Feb-25 15:56N 34°29' E 137°27'613.1
2018-Feb-25 15:29N 34°27' E 137°20'11610.3
2018-Feb-25 04:12N 33°46' E 135°08'312.9
2018-Feb-25 03:58N 33°49' E 135°06'612.9
2018-Feb-25 03:31N 33°53' E 135°01'612.8
2018-Feb-25 03:01N 33°57' E 134°55'612.8
2018-Feb-25 02:30N 34°02' E 134°50'713.0
2018-Feb-25 02:00N 34°07' E 134°45'713.3
2018-Feb-25 01:30N 34°13' E 134°40'612.8
2018-Feb-25 01:00N 34°17' E 134°34'612.7
2018-Feb-25 00:30N 34°19' E 134°27'8411.8
2018-Feb-24 17:25N 34°06' E 132°47'513.0
2018-Feb-24 17:00N 34°03' E 132°42'712.8
2018-Feb-24 16:30N 33°59' E 132°35'812.9
2018-Feb-24 15:52N 33°54' E 132°28'513.4
2018-Feb-24 15:29N 33°51' E 132°23'712.8
2018-Feb-24 14:55N 33°50' E 132°14'512.4
2018-Feb-24 14:29N 33°48' E 132°08'612.1
2018-Feb-24 13:57N 33°45' E 132°01'612.7
2018-Feb-24 13:30N 33°46' E 131°54'713.0
2018-Feb-24 13:00N 33°47' E 131°46'613.0
2018-Feb-24 12:30N 33°48' E 131°39'713.1
2018-Feb-24 12:00N 33°49' E 131°31'713.0
2018-Feb-24 11:30N 33°50' E 131°23'713.1
2018-Feb-24 11:00N 33°52' E 131°16'713.3
2018-Feb-24 10:30N 33°55' E 131°08'713.1
2018-Feb-24 10:00N 33°58' E 131°02'510.4
2018-Feb-24 09:31N 33°57' E 130°56'0 0.0
2018-Feb-24 09:00N 33°57' E 130°56'0 0.0
2018-Feb-24 08:30N 33°57' E 130°56'0 0.0
2018-Feb-24 08:00N 33°57' E 130°56'0 0.0
2018-Feb-24 07:30N 33°57' E 130°56'0 0.0
2018-Feb-24 07:00N 33°57' E 130°56'0 0.0
2018-Feb-24 06:27N 33°57' E 130°56'0 0.0
2018-Feb-24 06:00N 33°57' E 130°56'0 0.0
2018-Feb-24 05:30N 33°57' E 130°56'0 0.0
2018-Feb-24 05:00N 33°57' E 130°56'0 0.0
2018-Feb-24 04:30N 33°57' E 130°56'0 0.0
2018-Feb-24 04:00N 33°57' E 130°56'0 0.0
2018-Feb-24 03:30N 33°57' E 130°56'0 0.0
2018-Feb-24 03:00N 33°57' E 130°56'0 0.0
2018-Feb-24 02:30N 33°57' E 130°56'0 0.0
2018-Feb-24 02:00N 33°57' E 130°56'0 0.0
2018-Feb-24 01:30N 33°57' E 130°56'0 0.0
2018-Feb-24 01:00N 33°57' E 130°56'0 0.0
2018-Feb-24 00:30N 33°57' E 130°56'0 0.0
2018-Feb-24 00:00N 33°57' E 130°56'0 0.0
2018-Feb-23 23:30N 33°57' E 130°56'0 0.1
2018-Feb-23 23:00N 33°57' E 130°56'4 7.7
2018-Feb-23 22:31N 33°59' E 130°59'3 6.5
2018-Feb-23 21:59N 33°58' E 131°03'0 0.0
2018-Feb-23 21:26N 33°58' E 131°03'0 0.0
2018-Feb-23 20:59N 33°58' E 131°03'0 0.0
2018-Feb-23 20:29N 33°58' E 131°03'4 8.1
2018-Feb-23 20:01N 33°56' E 131°07'612.8
2018-Feb-23 19:31N 33°52' E 131°14'612.7
2018-Feb-23 19:00N 33°52' E 131°22'612.8
2018-Feb-23 18:30N 33°53' E 131°29'612.9
2018-Feb-23 18:01N 33°54' E 131°37'713.1
2018-Feb-23 17:30N 33°54' E 131°45'613.0
2018-Feb-23 17:00N 33°56' E 131°52'3 4.7
2018-Feb-23 16:22N 33°57' E 131°56'0 0.0
2018-Feb-23 16:00N 33°57' E 131°56'0 0.0
2018-Feb-23 15:26N 33°57' E 131°56'0 0.0
2018-Feb-23 14:56N 33°57' E 131°56'0 0.0
2018-Feb-23 12:34N 33°57' E 131°56'0 0.0
2018-Feb-23 12:30N 33°57' E 131°56'0 0.0
2018-Feb-23 11:58N 33°57' E 131°56'1 1.0
2018-Feb-23 11:29N 33°57' E 131°55'0 0.1
2018-Feb-23 09:25N 33°57' E 131°55'0 0.0
2018-Feb-23 03:49N 33°57' E 131°55'0 0.0
2018-Feb-23 03:13N 33°57' E 131°55'0 0.0
2018-Feb-23 02:43N 33°57' E 131°55'0 0.0
2018-Feb-23 01:25N 33°57' E 131°55'710.0
2018-Feb-23 00:42N 33°51' E 131°58'413.1
2018-Feb-23 00:23N 33°47' E 132°01'711.4
2018-Feb-22 23:45N 33°50' E 132°09'312.2
2018-Feb-22 23:28N 33°53' E 132°09'510.1
2018-Feb-22 23:00N 33°58' E 132°11'712.9
2018-Feb-22 22:29N 34°02' E 132°17'712.8
2018-Feb-22 21:56N 34°06' E 132°24'512.3
2018-Feb-22 21:30N 34°09' E 132°30'4 8.3
2018-Feb-22 21:00N 34°13' E 132°31'2 3.2
2018-Feb-22 20:30N 34°14' E 132°32'0 0.0
2018-Feb-22 20:00N 34°14' E 132°32'0 0.0
2018-Feb-22 19:30N 34°14' E 132°32'0 0.0
2018-Feb-22 18:58N 34°14' E 132°32'0 0.0
2018-Feb-22 18:28N 34°14' E 132°32'0 0.4
2018-Feb-22 17:58N 34°14' E 132°32'0 0.1
2018-Feb-22 17:28N 34°14' E 132°32'0 0.0
2018-Feb-22 16:58N 34°14' E 132°32'0 0.0
2018-Feb-22 16:28N 34°14' E 132°32'0 0.0
2018-Feb-22 15:58N 34°14' E 132°32'0 0.0
2018-Feb-22 15:28N 34°14' E 132°32'0 0.0
2018-Feb-22 14:58N 34°14' E 132°32'0 0.0
2018-Feb-22 14:28N 34°14' E 132°32'0 0.0
2018-Feb-22 13:58N 34°14' E 132°32'0 0.0
2018-Feb-22 13:28N 34°14' E 132°32'0 0.1
2018-Feb-22 12:58N 34°14' E 132°32'0 0.0
2018-Feb-22 12:28N 34°14' E 132°32'0 0.1
2018-Feb-22 11:58N 34°14' E 132°32'0 0.0
2018-Feb-22 11:28N 34°14' E 132°32'1 2.4
2018-Feb-22 11:00N 34°13' E 132°31'611.8
2018-Feb-22 10:30N 34°08' E 132°28'6 9.2
2018-Feb-22 09:52N 34°02' E 132°31'612.4
2018-Feb-22 09:23N 34°04' E 132°38'88 8.7
2018-Feb-21 23:14N 34°21' E 134°23'913.0
2018-Feb-21 22:34N 34°17' E 134°32'212.5
2018-Feb-21 22:23N 34°16' E 134°35'410.8
2018-Feb-21 21:59N 34°14' E 134°39'711.4
2018-Feb-21 21:24N 34°09' E 134°44'512.2
2018-Feb-21 20:58N 34°05' E 134°48'612.2
2018-Feb-21 20:30N 34°00' E 134°52'612.7
2018-Feb-21 20:00N 33°56' E 134°57'104 8.5
2018-Feb-21 07:43N 34°36' E 136°53'312.5
2018-Feb-21 07:30N 34°37' E 136°50'712.7
2018-Feb-21 06:59N 34°39' E 136°42'612.7
2018-Feb-21 06:30N 34°40' E 136°35'3 5.0
2018-Feb-21 05:59N 34°41' E 136°32'0 0.0
2018-Feb-21 01:45N 34°41' E 136°32'0 0.0
2018-Feb-20 23:09N 34°41' E 136°32'0 0.0
2018-Feb-20 22:51N 34°41' E 136°32'0 0.0
2018-Feb-20 22:27N 34°41' E 136°32'0 0.0
2018-Feb-20 21:57N 34°41' E 136°32'0 0.0
2018-Feb-20 21:27N 34°41' E 136°32'0 0.0
2018-Feb-20 20:56N 34°41' E 136°32'0 0.0
2018-Feb-20 20:30N 34°41' E 136°32'0 0.0
2018-Feb-20 19:51N 34°41' E 136°32'0 0.0
2018-Feb-20 19:27N 34°41' E 136°32'0 0.0
2018-Feb-20 18:57N 34°41' E 136°32'0 0.0
2018-Feb-20 18:27N 34°41' E 136°32'0 0.0
2018-Feb-20 17:45N 34°41' E 136°32'0 0.0
2018-Feb-20 17:27N 34°41' E 136°32'0 0.0
2018-Feb-20 16:57N 34°41' E 136°32'0 0.0
2018-Feb-20 16:27N 34°41' E 136°32'0 0.0
2018-Feb-20 15:45N 34°41' E 136°32'0 0.0
2018-Feb-20 15:27N 34°41' E 136°32'0 0.0
2018-Feb-20 14:57N 34°41' E 136°32'0 0.0
2018-Feb-20 14:27N 34°41' E 136°32'0 0.0
2018-Feb-20 13:56N 34°41' E 136°32'0 0.0
2018-Feb-20 13:20N 34°41' E 136°32'0 0.0
2018-Feb-20 12:57N 34°41' E 136°32'0 0.0
2018-Feb-20 12:27N 34°41' E 136°32'0 0.0
2018-Feb-20 11:45N 34°41' E 136°32'0 0.0
2018-Feb-20 11:27N 34°41' E 136°32'0 0.0
2018-Feb-20 10:57N 34°41' E 136°32'0 0.0
2018-Feb-20 10:26N 34°41' E 136°32'0 0.0
2018-Feb-20 09:56N 34°41' E 136°32'0 0.0
2018-Feb-20 09:27N 34°41' E 136°32'0 0.0
2018-Feb-20 08:57N 34°41' E 136°32'0 0.0
2018-Feb-20 08:27N 34°41' E 136°32'0 0.0
2018-Feb-20 07:33N 34°41' E 136°32'0 0.0
2018-Feb-20 07:27N 34°41' E 136°32'0 0.0
2018-Feb-20 06:57N 34°41' E 136°32'0 0.0
2018-Feb-20 06:21N 34°41' E 136°32'0 0.0
2018-Feb-20 05:51N 34°41' E 136°32'0 0.0
2018-Feb-20 05:20N 34°41' E 136°32'0 0.0
2018-Feb-20 04:56N 34°41' E 136°32'0 0.0
2018-Feb-20 04:26N 34°41' E 136°32'0 0.0
2018-Feb-20 03:50N 34°41' E 136°32'0 0.0
2018-Feb-20 03:27N 34°41' E 136°32'0 0.0
2018-Feb-20 02:56N 34°41' E 136°32'0 0.0
2018-Feb-20 01:51N 34°41' E 136°32'0 0.0
2018-Feb-19 23:03N 34°41' E 136°32'0 0.0
2018-Feb-19 22:57N 34°41' E 136°32'0 0.0
2018-Feb-19 22:26N 34°41' E 136°32'0 0.0
2018-Feb-19 21:59N 34°41' E 136°32'0 0.0
2018-Feb-19 21:21N 34°41' E 136°32'0 0.0
2018-Feb-19 20:57N 34°41' E 136°32'0 0.0
2018-Feb-19 20:27N 34°41' E 136°32'0 0.0
2018-Feb-19 19:56N 34°41' E 136°32'0 0.0
2018-Feb-19 19:27N 34°41' E 136°32'0 0.0
2018-Feb-19 18:56N 34°41' E 136°32'0 0.0
2018-Feb-19 18:26N 34°41' E 136°32'0 0.0
2018-Feb-19 17:56N 34°41' E 136°32'0 0.0
2018-Feb-19 17:26N 34°41' E 136°32'0 0.0
2018-Feb-19 16:56N 34°41' E 136°32'0 0.0
2018-Feb-19 16:26N 34°41' E 136°32'0 0.0
2018-Feb-19 15:56N 34°41' E 136°32'0 0.0
2018-Feb-19 15:26N 34°41' E 136°32'0 0.0
2018-Feb-19 14:56N 34°41' E 136°32'0 0.0
2018-Feb-19 14:20N 34°41' E 136°32'0 0.0
2018-Feb-19 13:56N 34°41' E 136°32'0 0.0
2018-Feb-19 13:27N 34°41' E 136°32'0 0.0
2018-Feb-19 12:56N 34°41' E 136°32'0 0.0
2018-Feb-19 12:26N 34°41' E 136°32'0 0.0
2018-Feb-19 11:50N 34°41' E 136°32'0 0.0
2018-Feb-19 11:26N 34°41' E 136°32'0 0.0
2018-Feb-19 10:56N 34°41' E 136°32'0 0.0
2018-Feb-19 10:26N 34°41' E 136°32'0 0.0
2018-Feb-19 09:56N 34°41' E 136°32'0 0.0
2018-Feb-19 09:26N 34°41' E 136°32'0 0.0
2018-Feb-19 08:56N 34°41' E 136°32'0 0.0
2018-Feb-19 07:56N 34°41' E 136°32'0 0.0
2018-Feb-19 07:08N 34°41' E 136°32'0 0.0
2018-Feb-19 04:14N 34°41' E 136°32'0 0.0
2018-Feb-19 03:50N 34°41' E 136°32'0 0.0
2018-Feb-19 03:26N 34°41' E 136°32'0 0.0
2018-Feb-19 02:56N 34°41' E 136°32'0 0.0
2018-Feb-19 02:26N 34°41' E 136°32'1 2.2
2018-Feb-19 01:55N 34°41' E 136°33'1 2.8
2018-Feb-19 01:28N 34°41' E 136°35'4 7.6
2018-Feb-19 00:53N 34°40' E 136°40'2510.5
2018-Feb-18 22:29N 34°33' E 137°10'8110.3
2018-Feb-18 14:38N 34°36' E 138°48'5 8.9
2018-Feb-18 14:02N 34°35' E 138°54'0 8.1
2018-Feb-18 14:00N 34°36' E 138°55'15 9.9
2018-Feb-18 12:26N 34°46' E 139°09'2410.3
2018-Feb-18 10:08N 35°00' E 139°32'110.4
2018-Feb-18 10:00N 35°01' E 139°33'610.6
2018-Feb-18 09:29N 35°05' E 139°38'611.8
2018-Feb-18 09:00N 35°09' E 139°43'611.4
2018-Feb-18 08:30N 35°14' E 139°46'510.7
2018-Feb-18 08:00N 35°19' E 139°43'510.6
2018-Feb-18 07:30N 35°24' E 139°42'4 8.5
2018-Feb-18 07:00N 35°28' E 139°43'0 0.0
2018-Feb-18 06:30N 35°28' E 139°43'0 0.0
2018-Feb-18 06:00N 35°28' E 139°43'0 0.0
2018-Feb-18 05:30N 35°28' E 139°43'0 0.0
2018-Feb-18 05:00N 35°28' E 139°43'0 0.0
2018-Feb-18 04:28N 35°28' E 139°43'0 0.0
2018-Feb-18 03:58N 35°28' E 139°43'0 0.0
2018-Feb-18 03:28N 35°28' E 139°43'0 0.0
2018-Feb-18 02:58N 35°28' E 139°43'0 0.0
2018-Feb-18 02:25N 35°28' E 139°43'0 0.0
2018-Feb-18 01:58N 35°28' E 139°43'0 0.0
2018-Feb-18 01:28N 35°28' E 139°43'0 0.0
2018-Feb-18 00:58N 35°28' E 139°43'0 0.0
2018-Feb-18 00:28N 35°28' E 139°43'0 0.0
2018-Feb-17 23:58N 35°28' E 139°43'0 0.0
2018-Feb-17 23:28N 35°28' E 139°43'0 0.0
2018-Feb-17 22:58N 35°28' E 139°43'0 0.0
2018-Feb-17 22:28N 35°28' E 139°43'0 0.0
2018-Feb-17 21:58N 35°28' E 139°43'0 0.0
2018-Feb-17 21:28N 35°28' E 139°43'0 0.0
2018-Feb-17 20:58N 35°28' E 139°43'0 0.0
2018-Feb-17 20:25N 35°28' E 139°43'0 0.0
2018-Feb-17 19:58N 35°28' E 139°43'0 0.0
2018-Feb-17 19:28N 35°28' E 139°43'0 0.0
2018-Feb-17 18:58N 35°28' E 139°43'0 0.0
2018-Feb-17 18:25N 35°28' E 139°43'0 0.0
2018-Feb-17 17:58N 35°28' E 139°43'0 0.0
2018-Feb-17 17:28N 35°28' E 139°43'0 0.0
2018-Feb-17 16:58N 35°28' E 139°43'0 0.0
2018-Feb-17 16:28N 35°28' E 139°43'0 0.0
2018-Feb-17 15:58N 35°28' E 139°43'0 0.0
2018-Feb-17 15:28N 35°28' E 139°43'0 0.0
2018-Feb-17 14:58N 35°28' E 139°43'0 0.0
2018-Feb-17 14:28N 35°28' E 139°43'0 0.0
2018-Feb-17 13:58N 35°28' E 139°43'0 0.0
2018-Feb-17 13:28N 35°28' E 139°43'0 0.0
2018-Feb-17 12:58N 35°28' E 139°43'0 0.0
2018-Feb-17 12:28N 35°28' E 139°43'0 0.0
2018-Feb-17 11:58N 35°28' E 139°43'0 0.0
2018-Feb-17 11:28N 35°28' E 139°43'0 0.0
2018-Feb-17 10:58N 35°28' E 139°43'0 0.0
2018-Feb-17 10:28N 35°28' E 139°43'0 0.0
2018-Feb-17 09:58N 35°28' E 139°43'0 0.0
2018-Feb-17 09:28N 35°28' E 139°43'0 0.0
2018-Feb-17 08:58N 35°28' E 139°43'0 0.0
2018-Feb-17 08:28N 35°28' E 139°43'0 0.4
2018-Feb-17 08:00N 35°28' E 139°42'0 0.0
2018-Feb-17 07:30N 35°28' E 139°42'0 0.0
2018-Feb-17 07:00N 35°28' E 139°42'0 0.0
2018-Feb-17 06:21N 35°28' E 139°42'0 0.0
2018-Feb-17 06:00N 35°28' E 139°42'0 0.0
2018-Feb-17 05:30N 35°28' E 139°42'0 0.0
2018-Feb-17 05:00N 35°28' E 139°42'0 0.0
2018-Feb-17 04:30N 35°28' E 139°42'0 0.0
2018-Feb-17 04:00N 35°28' E 139°42'0 0.0
2018-Feb-17 03:30N 35°28' E 139°42'0 0.0
2018-Feb-17 03:00N 35°28' E 139°42'0 0.0
2018-Feb-17 02:30N 35°28' E 139°42'0 0.0
2018-Feb-17 02:00N 35°28' E 139°42'0 0.0
2018-Feb-17 01:30N 35°28' E 139°42'0 0.0
2018-Feb-17 01:00N 35°28' E 139°42'0 0.0
2018-Feb-17 00:30N 35°28' E 139°42'0 0.0
2018-Feb-17 00:00N 35°28' E 139°42'0 0.1
2018-Feb-16 23:31N 35°28' E 139°42'1 2.5
2018-Feb-16 22:58N 35°27' E 139°42'0 0.0
2018-Feb-16 22:28N 35°27' E 139°42'0 0.1
2018-Feb-16 21:58N 35°27' E 139°42'0 0.0
2018-Feb-16 21:28N 35°27' E 139°42'0 0.0
2018-Feb-16 20:58N 35°27' E 139°42'0 0.0
2018-Feb-16 20:28N 35°27' E 139°42'0 0.0
2018-Feb-16 19:58N 35°27' E 139°42'0 0.0
2018-Feb-16 19:28N 35°27' E 139°42'0 0.0
2018-Feb-16 18:58N 35°27' E 139°42'0 0.0
2018-Feb-16 18:28N 35°27' E 139°42'0 0.0
2018-Feb-16 17:58N 35°27' E 139°42'0 0.0
2018-Feb-16 17:28N 35°27' E 139°42'0 0.0
2018-Feb-16 16:58N 35°27' E 139°42'0 0.0
2018-Feb-16 16:25N 35°27' E 139°42'0 0.0
2018-Feb-16 15:58N 35°27' E 139°42'0 0.0
2018-Feb-16 15:28N 35°27' E 139°42'0 0.0
2018-Feb-16 14:58N 35°27' E 139°42'0 0.1
2018-Feb-16 14:28N 35°27' E 139°42'0 0.0
2018-Feb-16 13:58N 35°27' E 139°42'0 0.0
2018-Feb-16 13:28N 35°27' E 139°42'0 0.0
2018-Feb-16 12:58N 35°27' E 139°42'0 0.0
2018-Feb-16 12:28N 35°27' E 139°42'0 0.0
2018-Feb-16 11:58N 35°27' E 139°42'0 0.0
2018-Feb-16 11:28N 35°27' E 139°42'0 0.0
2018-Feb-16 10:58N 35°27' E 139°42'0 0.0
2018-Feb-16 10:28N 35°27' E 139°42'0 0.0
2018-Feb-16 09:58N 35°27' E 139°42'0 0.0
2018-Feb-16 09:25N 35°27' E 139°42'0 0.0
2018-Feb-16 08:58N 35°27' E 139°42'0 0.0
2018-Feb-16 08:28N 35°27' E 139°42'0 0.0
2018-Feb-16 07:58N 35°27' E 139°42'0 0.0
2018-Feb-16 07:28N 35°27' E 139°42'0 0.0
2018-Feb-16 06:58N 35°27' E 139°42'0 0.0
2018-Feb-16 06:25N 35°27' E 139°42'0 0.0
2018-Feb-16 05:58N 35°27' E 139°42'0 0.0
2018-Feb-16 05:28N 35°27' E 139°42'0 0.0
2018-Feb-16 04:52N 35°27' E 139°42'0 0.0
2018-Feb-16 04:28N 35°27' E 139°42'0 0.0
2018-Feb-16 03:58N 35°27' E 139°42'0 0.0
2018-Feb-16 03:28N 35°27' E 139°42'0 0.0
2018-Feb-16 02:58N 35°27' E 139°42'0 0.0
2018-Feb-16 02:28N 35°27' E 139°42'0 0.0
2018-Feb-16 01:58N 35°27' E 139°42'0 0.0
2018-Feb-16 01:28N 35°27' E 139°42'0 0.0
2018-Feb-16 00:58N 35°27' E 139°42'0 0.0
2018-Feb-16 00:28N 35°27' E 139°42'0 0.0
2018-Feb-15 23:58N 35°27' E 139°42'0 0.0
2018-Feb-15 23:28N 35°27' E 139°42'0 0.1
2018-Feb-15 22:58N 35°27' E 139°42'0 0.0
2018-Feb-15 22:28N 35°27' E 139°42'0 0.0
2018-Feb-15 21:58N 35°27' E 139°42'0 0.0
2018-Feb-15 21:28N 35°27' E 139°42'0 0.0
2018-Feb-15 20:58N 35°27' E 139°42'0 0.0
2018-Feb-15 20:28N 35°27' E 139°42'0 0.0
2018-Feb-15 19:58N 35°27' E 139°42'  
Track history (hours):
 
Tides and Currents Weather Stations Pressure Air Temp Water Temp Dewpoint Dewpoint Depression Visibility Wind Speed Wind Dir Waves Ship Positions

Shinsei

Last reported at 2018-Feb-25 19:29 UTC. Time now 2018-Feb-25 19:34 UTC.
Position N 34°38' E 138°16'.

Length 74 m; draft 3.8 m.

Type: Cargo ship. MMSI: 431005241.

Date/timePositionNaut miles runAvg speedWind from/ knotsBaromVisibWave heightAir tempDewpointWater temp
2018-Feb-25 19:29N 34°38' E 138°16'4111.6
2018-Feb-25 15:56N 34°29' E 137°27'613.1
2018-Feb-25 15:29N 34°27' E 137°20'11610.3
2018-Feb-25 04:12N 33°46' E 135°08'312.9
2018-Feb-25 03:58N 33°49' E 135°06'612.9
2018-Feb-25 03:31N 33°53' E 135°01'612.8
2018-Feb-25 03:01N 33°57' E 134°55'612.8
2018-Feb-25 02:30N 34°02' E 134°50'713.0
2018-Feb-25 02:00N 34°07' E 134°45'713.3
2018-Feb-25 01:30N 34°13' E 134°40'612.8
2018-Feb-25 01:00N 34°17' E 134°34'612.7
2018-Feb-25 00:30N 34°19' E 134°27'8411.8
2018-Feb-24 17:25N 34°06' E 132°47'513.0
2018-Feb-24 17:00N 34°03' E 132°42'712.8
2018-Feb-24 16:30N 33°59' E 132°35'812.9
2018-Feb-24 15:52N 33°54' E 132°28'513.4
2018-Feb-24 15:29N 33°51' E 132°23'712.8
2018-Feb-24 14:55N 33°50' E 132°14'512.4
2018-Feb-24 14:29N 33°48' E 132°08'612.1
2018-Feb-24 13:57N 33°45' E 132°01'612.7
2018-Feb-24 13:30N 33°46' E 131°54'713.0
2018-Feb-24 13:00N 33°47' E 131°46'613.0
2018-Feb-24 12:30N 33°48' E 131°39'713.1
2018-Feb-24 12:00N 33°49' E 131°31'713.0
2018-Feb-24 11:30N 33°50' E 131°23'713.1
2018-Feb-24 11:00N 33°52' E 131°16'713.3
2018-Feb-24 10:30N 33°55' E 131°08'713.1
2018-Feb-24 10:00N 33°58' E 131°02'510.4
2018-Feb-24 09:31N 33°57' E 130°56'0 0.0
2018-Feb-24 09:00N 33°57' E 130°56'0 0.0
2018-Feb-24 08:30N 33°57' E 130°56'0 0.0
2018-Feb-24 08:00N 33°57' E 130°56'0 0.0
2018-Feb-24 07:30N 33°57' E 130°56'0 0.0
2018-Feb-24 07:00N 33°57' E 130°56'0 0.0
2018-Feb-24 06:27N 33°57' E 130°56'0 0.0
2018-Feb-24 06:00N 33°57' E 130°56'0 0.0
2018-Feb-24 05:30N 33°57' E 130°56'0 0.0
2018-Feb-24 05:00N 33°57' E 130°56'0 0.0
2018-Feb-24 04:30N 33°57' E 130°56'0 0.0
2018-Feb-24 04:00N 33°57' E 130°56'0 0.0
2018-Feb-24 03:30N 33°57' E 130°56'0 0.0
2018-Feb-24 03:00N 33°57' E 130°56'0 0.0
2018-Feb-24 02:30N 33°57' E 130°56'0 0.0
2018-Feb-24 02:00N 33°57' E 130°56'0 0.0
2018-Feb-24 01:30N 33°57' E 130°56'0 0.0
2018-Feb-24 01:00N 33°57' E 130°56'0 0.0
2018-Feb-24 00:30N 33°57' E 130°56'0 0.0
2018-Feb-24 00:00N 33°57' E 130°56'0 0.0
2018-Feb-23 23:30N 33°57' E 130°56'0 0.1
2018-Feb-23 23:00N 33°57' E 130°56'4 7.7
2018-Feb-23 22:31N 33°59' E 130°59'3 6.5
2018-Feb-23 21:59N 33°58' E 131°03'0 0.0
2018-Feb-23 21:26N 33°58' E 131°03'0 0.0
2018-Feb-23 20:59N 33°58' E 131°03'0 0.0
2018-Feb-23 20:29N 33°58' E 131°03'4 8.1
2018-Feb-23 20:01N 33°56' E 131°07'612.8
2018-Feb-23 19:31N 33°52' E 131°14'612.7
2018-Feb-23 19:00N 33°52' E 131°22'612.8
2018-Feb-23 18:30N 33°53' E 131°29'612.9
2018-Feb-23 18:01N 33°54' E 131°37'713.1
2018-Feb-23 17:30N 33°54' E 131°45'613.0
2018-Feb-23 17:00N 33°56' E 131°52'3 4.7
2018-Feb-23 16:22N 33°57' E 131°56'0 0.0
2018-Feb-23 16:00N 33°57' E 131°56'0 0.0
2018-Feb-23 15:26N 33°57' E 131°56'0 0.0
2018-Feb-23 14:56N 33°57' E 131°56'0 0.0
2018-Feb-23 12:34N 33°57' E 131°56'0 0.0
2018-Feb-23 12:30N 33°57' E 131°56'0 0.0
2018-Feb-23 11:58N 33°57' E 131°56'1 1.0
2018-Feb-23 11:29N 33°57' E 131°55'0 0.1
2018-Feb-23 09:25N 33°57' E 131°55'0 0.0
2018-Feb-23 03:49N 33°57' E 131°55'0 0.0
2018-Feb-23 03:13N 33°57' E 131°55'0 0.0
2018-Feb-23 02:43N 33°57' E 131°55'0 0.0
2018-Feb-23 01:25N 33°57' E 131°55'710.0
2018-Feb-23 00:42N 33°51' E 131°58'413.1
2018-Feb-23 00:23N 33°47' E 132°01'711.4
2018-Feb-22 23:45N 33°50' E 132°09'312.2
2018-Feb-22 23:28N 33°53' E 132°09'510.1
2018-Feb-22 23:00N 33°58' E 132°11'712.9
2018-Feb-22 22:29N 34°02' E 132°17'712.8
2018-Feb-22 21:56N 34°06' E 132°24'512.3
2018-Feb-22 21:30N 34°09' E 132°30'4 8.3
2018-Feb-22 21:00N 34°13' E 132°31'2 3.2
2018-Feb-22 20:30N 34°14' E 132°32'0 0.0
2018-Feb-22 20:00N 34°14' E 132°32'0 0.0
2018-Feb-22 19:30N 34°14' E 132°32'0 0.0
2018-Feb-22 18:58N 34°14' E 132°32'0 0.0
2018-Feb-22 18:28N 34°14' E 132°32'0 0.4
2018-Feb-22 17:58N 34°14' E 132°32'0 0.1
2018-Feb-22 17:28N 34°14' E 132°32'0 0.0
2018-Feb-22 16:58N 34°14' E 132°32'0 0.0
2018-Feb-22 16:28N 34°14' E 132°32'0 0.0
2018-Feb-22 15:58N 34°14' E 132°32'0 0.0
2018-Feb-22 15:28N 34°14' E 132°32'0 0.0
2018-Feb-22 14:58N 34°14' E 132°32'0 0.0
2018-Feb-22 14:28N 34°14' E 132°32'0 0.0
2018-Feb-22 13:58N 34°14' E 132°32'0 0.0
2018-Feb-22 13:28N 34°14' E 132°32'0 0.1
2018-Feb-22 12:58N 34°14' E 132°32'0 0.0
2018-Feb-22 12:28N 34°14' E 132°32'0 0.1
2018-Feb-22 11:58N 34°14' E 132°32'0 0.0
2018-Feb-22 11:28N 34°14' E 132°32'1 2.4
2018-Feb-22 11:00N 34°13' E 132°31'611.8
2018-Feb-22 10:30N 34°08' E 132°28'6 9.2
2018-Feb-22 09:52N 34°02' E 132°31'612.4
2018-Feb-22 09:23N 34°04' E 132°38'88 8.7
2018-Feb-21 23:14N 34°21' E 134°23'913.0
2018-Feb-21 22:34N 34°17' E 134°32'212.5
2018-Feb-21 22:23N 34°16' E 134°35'410.8
2018-Feb-21 21:59N 34°14' E 134°39'711.4
2018-Feb-21 21:24N 34°09' E 134°44'512.2
2018-Feb-21 20:58N 34°05' E 134°48'612.2
2018-Feb-21 20:30N 34°00' E 134°52'612.7
2018-Feb-21 20:00N 33°56' E 134°57'104 8.5
2018-Feb-21 07:43N 34°36' E 136°53'312.5
2018-Feb-21 07:30N 34°37' E 136°50'712.7
2018-Feb-21 06:59N 34°39' E 136°42'612.7
2018-Feb-21 06:30N 34°40' E 136°35'3 5.0
2018-Feb-21 05:59N 34°41' E 136°32'0 0.0
2018-Feb-21 01:45N 34°41' E 136°32'0 0.0
2018-Feb-20 23:09N 34°41' E 136°32'0 0.0
2018-Feb-20 22:51N 34°41' E 136°32'0 0.0
2018-Feb-20 22:27N 34°41' E 136°32'0 0.0
2018-Feb-20 21:57N 34°41' E 136°32'0 0.0
2018-Feb-20 21:27N 34°41' E 136°32'0 0.0
2018-Feb-20 20:56N 34°41' E 136°32'0 0.0
2018-Feb-20 20:30N 34°41' E 136°32'0 0.0
2018-Feb-20 19:51N 34°41' E 136°32'0 0.0
2018-Feb-20 19:27N 34°41' E 136°32'0 0.0
2018-Feb-20 18:57N 34°41' E 136°32'0 0.0
2018-Feb-20 18:27N 34°41' E 136°32'0 0.0
2018-Feb-20 17:45N 34°41' E 136°32'0 0.0
2018-Feb-20 17:27N 34°41' E 136°32'0 0.0
2018-Feb-20 16:57N 34°41' E 136°32'0 0.0
2018-Feb-20 16:27N 34°41' E 136°32'0 0.0
2018-Feb-20 15:45N 34°41' E 136°32'0 0.0
2018-Feb-20 15:27N 34°41' E 136°32'0 0.0
2018-Feb-20 14:57N 34°41' E 136°32'0 0.0
2018-Feb-20 14:27N 34°41' E 136°32'0 0.0
2018-Feb-20 13:56N 34°41' E 136°32'0 0.0
2018-Feb-20 13:20N 34°41' E 136°32'0 0.0
2018-Feb-20 12:57N 34°41' E 136°32'0 0.0
2018-Feb-20 12:27N 34°41' E 136°32'0 0.0
2018-Feb-20 11:45N 34°41' E 136°32'0 0.0
2018-Feb-20 11:27N 34°41' E 136°32'0 0.0
2018-Feb-20 10:57N 34°41' E 136°32'0 0.0
2018-Feb-20 10:26N 34°41' E 136°32'0 0.0
2018-Feb-20 09:56N 34°41' E 136°32'0 0.0
2018-Feb-20 09:27N 34°41' E 136°32'0 0.0
2018-Feb-20 08:57N 34°41' E 136°32'0 0.0
2018-Feb-20 08:27N 34°41' E 136°32'0 0.0
2018-Feb-20 07:33N 34°41' E 136°32'0 0.0
2018-Feb-20 07:27N 34°41' E 136°32'0 0.0
2018-Feb-20 06:57N 34°41' E 136°32'0 0.0
2018-Feb-20 06:21N 34°41' E 136°32'0 0.0
2018-Feb-20 05:51N 34°41' E 136°32'0 0.0
2018-Feb-20 05:20N 34°41' E 136°32'0 0.0
2018-Feb-20 04:56N 34°41' E 136°32'0 0.0
2018-Feb-20 04:26N 34°41' E 136°32'0 0.0
2018-Feb-20 03:50N 34°41' E 136°32'0 0.0
2018-Feb-20 03:27N 34°41' E 136°32'0 0.0
2018-Feb-20 02:56N 34°41' E 136°32'0 0.0
2018-Feb-20 01:51N 34°41' E 136°32'0 0.0
2018-Feb-19 23:03N 34°41' E 136°32'0 0.0
2018-Feb-19 22:57N 34°41' E 136°32'0 0.0
2018-Feb-19 22:26N 34°41' E 136°32'0 0.0
2018-Feb-19 21:59N 34°41' E 136°32'0 0.0
2018-Feb-19 21:21N 34°41' E 136°32'0 0.0
2018-Feb-19 20:57N 34°41' E 136°32'0 0.0
2018-Feb-19 20:27N 34°41' E 136°32'0 0.0
2018-Feb-19 19:56N 34°41' E 136°32'0 0.0
2018-Feb-19 19:27N 34°41' E 136°32'0 0.0
2018-Feb-19 18:56N 34°41' E 136°32'0 0.0
2018-Feb-19 18:26N 34°41' E 136°32'0 0.0
2018-Feb-19 17:56N 34°41' E 136°32'0 0.0
2018-Feb-19 17:26N 34°41' E 136°32'0 0.0
2018-Feb-19 16:56N 34°41' E 136°32'0 0.0
2018-Feb-19 16:26N 34°41' E 136°32'0 0.0
2018-Feb-19 15:56N 34°41' E 136°32'0 0.0
2018-Feb-19 15:26N 34°41' E 136°32'0 0.0
2018-Feb-19 14:56N 34°41' E 136°32'0 0.0
2018-Feb-19 14:20N 34°41' E 136°32'0 0.0
2018-Feb-19 13:56N 34°41' E 136°32'0 0.0
2018-Feb-19 13:27N 34°41' E 136°32'0 0.0
2018-Feb-19 12:56N 34°41' E 136°32'0 0.0
2018-Feb-19 12:26N 34°41' E 136°32'0 0.0
2018-Feb-19 11:50N 34°41' E 136°32'0 0.0
2018-Feb-19 11:26N 34°41' E 136°32'0 0.0
2018-Feb-19 10:56N 34°41' E 136°32'0 0.0
2018-Feb-19 10:26N 34°41' E 136°32'0 0.0
2018-Feb-19 09:56N 34°41' E 136°32'0 0.0
2018-Feb-19 09:26N 34°41' E 136°32'0 0.0
2018-Feb-19 08:56N 34°41' E 136°32'0 0.0
2018-Feb-19 07:56N 34°41' E 136°32'0 0.0
2018-Feb-19 07:08N 34°41' E 136°32'0 0.0
2018-Feb-19 04:14N 34°41' E 136°32'0 0.0
2018-Feb-19 03:50N 34°41' E 136°32'0 0.0
2018-Feb-19 03:26N 34°41' E 136°32'0 0.0
2018-Feb-19 02:56N 34°41' E 136°32'0 0.0
2018-Feb-19 02:26N 34°41' E 136°32'1 2.2
2018-Feb-19 01:55N 34°41' E 136°33'1 2.8
2018-Feb-19 01:28N 34°41' E 136°35'4 7.6
2018-Feb-19 00:53N 34°40' E 136°40'2510.5
2018-Feb-18 22:29N 34°33' E 137°10'8110.3
2018-Feb-18 14:38N 34°36' E 138°48'5 8.9
2018-Feb-18 14:02N 34°35' E 138°54'0 8.1
2018-Feb-18 14:00N 34°36' E 138°55'15 9.9
2018-Feb-18 12:26N 34°46' E 139°09'2410.3
2018-Feb-18 10:08N 35°00' E 139°32'110.4
2018-Feb-18 10:00N 35°01' E 139°33'610.6
2018-Feb-18 09:29N 35°05' E 139°38'611.8
2018-Feb-18 09:00N 35°09' E 139°43'611.4
2018-Feb-18 08:30N 35°14' E 139°46'510.7
2018-Feb-18 08:00N 35°19' E 139°43'510.6
2018-Feb-18 07:30N 35°24' E 139°42'4 8.5
2018-Feb-18 07:00N 35°28' E 139°43'0 0.0
2018-Feb-18 06:30N 35°28' E 139°43'0 0.0
2018-Feb-18 06:00N 35°28' E 139°43'0 0.0
2018-Feb-18 05:30N 35°28' E 139°43'0 0.0
2018-Feb-18 05:00N 35°28' E 139°43'0 0.0
2018-Feb-18 04:28N 35°28' E 139°43'0 0.0
2018-Feb-18 03:58N 35°28' E 139°43'0 0.0
2018-Feb-18 03:28N 35°28' E 139°43'0 0.0
2018-Feb-18 02:58N 35°28' E 139°43'0 0.0
2018-Feb-18 02:25N 35°28' E 139°43'0 0.0
2018-Feb-18 01:58N 35°28' E 139°43'0 0.0
2018-Feb-18 01:28N 35°28' E 139°43'0 0.0
2018-Feb-18 00:58N 35°28' E 139°43'0 0.0
2018-Feb-18 00:28N 35°28' E 139°43'0 0.0
2018-Feb-17 23:58N 35°28' E 139°43'0 0.0
2018-Feb-17 23:28N 35°28' E 139°43'0 0.0
2018-Feb-17 22:58N 35°28' E 139°43'0 0.0
2018-Feb-17 22:28N 35°28' E 139°43'0 0.0
2018-Feb-17 21:58N 35°28' E 139°43'0 0.0
2018-Feb-17 21:28N 35°28' E 139°43'0 0.0
2018-Feb-17 20:58N 35°28' E 139°43'0 0.0
2018-Feb-17 20:25N 35°28' E 139°43'0 0.0
2018-Feb-17 19:58N 35°28' E 139°43'0 0.0
2018-Feb-17 19:28N 35°28' E 139°43'0 0.0
2018-Feb-17 18:58N 35°28' E 139°43'0 0.0
2018-Feb-17 18:25N 35°28' E 139°43'0 0.0
2018-Feb-17 17:58N 35°28' E 139°43'0 0.0
2018-Feb-17 17:28N 35°28' E 139°43'0 0.0
2018-Feb-17 16:58N 35°28' E 139°43'0 0.0
2018-Feb-17 16:28N 35°28' E 139°43'0 0.0
2018-Feb-17 15:58N 35°28' E 139°43'0 0.0
2018-Feb-17 15:28N 35°28' E 139°43'0 0.0
2018-Feb-17 14:58N 35°28' E 139°43'0 0.0
2018-Feb-17 14:28N 35°28' E 139°43'0 0.0
2018-Feb-17 13:58N 35°28' E 139°43'0 0.0
2018-Feb-17 13:28N 35°28' E 139°43'0 0.0
2018-Feb-17 12:58N 35°28' E 139°43'0 0.0
2018-Feb-17 12:28N 35°28' E 139°43'0 0.0
2018-Feb-17 11:58N 35°28' E 139°43'0 0.0
2018-Feb-17 11:28N 35°28' E 139°43'0 0.0
2018-Feb-17 10:58N 35°28' E 139°43'0 0.0
2018-Feb-17 10:28N 35°28' E 139°43'0 0.0
2018-Feb-17 09:58N 35°28' E 139°43'0 0.0
2018-Feb-17 09:28N 35°28' E 139°43'0 0.0
2018-Feb-17 08:58N 35°28' E 139°43'0 0.0
2018-Feb-17 08:28N 35°28' E 139°43'0 0.4
2018-Feb-17 08:00N 35°28' E 139°42'0 0.0
2018-Feb-17 07:30N 35°28' E 139°42'0 0.0
2018-Feb-17 07:00N 35°28' E 139°42'0 0.0
2018-Feb-17 06:21N 35°28' E 139°42'0 0.0
2018-Feb-17 06:00N 35°28' E 139°42'0 0.0
2018-Feb-17 05:30N 35°28' E 139°42'0 0.0
2018-Feb-17 05:00N 35°28' E 139°42'0 0.0
2018-Feb-17 04:30N 35°28' E 139°42'0 0.0
2018-Feb-17 04:00N 35°28' E 139°42'0 0.0
2018-Feb-17 03:30N 35°28' E 139°42'0 0.0
2018-Feb-17 03:00N 35°28' E 139°42'0 0.0
2018-Feb-17 02:30N 35°28' E 139°42'0 0.0
2018-Feb-17 02:00N 35°28' E 139°42'0 0.0
2018-Feb-17 01:30N 35°28' E 139°42'0 0.0
2018-Feb-17 01:00N 35°28' E 139°42'0 0.0
2018-Feb-17 00:30N 35°28' E 139°42'0 0.0
2018-Feb-17 00:00N 35°28' E 139°42'0 0.1
2018-Feb-16 23:31N 35°28' E 139°42'1 2.5
2018-Feb-16 22:58N 35°27' E 139°42'0 0.0
2018-Feb-16 22:28N 35°27' E 139°42'0 0.1
2018-Feb-16 21:58N 35°27' E 139°42'0 0.0
2018-Feb-16 21:28N 35°27' E 139°42'0 0.0
2018-Feb-16 20:58N 35°27' E 139°42'0 0.0
2018-Feb-16 20:28N 35°27' E 139°42'0 0.0
2018-Feb-16 19:58N 35°27' E 139°42'0 0.0
2018-Feb-16 19:28N 35°27' E 139°42'0 0.0
2018-Feb-16 18:58N 35°27' E 139°42'0 0.0
2018-Feb-16 18:28N 35°27' E 139°42'0 0.0
2018-Feb-16 17:58N 35°27' E 139°42'0 0.0
2018-Feb-16 17:28N 35°27' E 139°42'0 0.0
2018-Feb-16 16:58N 35°27' E 139°42'0 0.0
2018-Feb-16 16:25N 35°27' E 139°42'0 0.0
2018-Feb-16 15:58N 35°27' E 139°42'0 0.0
2018-Feb-16 15:28N 35°27' E 139°42'0 0.0
2018-Feb-16 14:58N 35°27' E 139°42'0 0.1
2018-Feb-16 14:28N 35°27' E 139°42'0 0.0
2018-Feb-16 13:58N 35°27' E 139°42'0 0.0
2018-Feb-16 13:28N 35°27' E 139°42'0 0.0
2018-Feb-16 12:58N 35°27' E 139°42'0 0.0
2018-Feb-16 12:28N 35°27' E 139°42'0 0.0
2018-Feb-16 11:58N 35°27' E 139°42'0 0.0
2018-Feb-16 11:28N 35°27' E 139°42'0 0.0
2018-Feb-16 10:58N 35°27' E 139°42'0 0.0
2018-Feb-16 10:28N 35°27' E 139°42'0 0.0
2018-Feb-16 09:58N 35°27' E 139°42'0 0.0
2018-Feb-16 09:25N 35°27' E 139°42'0 0.0
2018-Feb-16 08:58N 35°27' E 139°42'0 0.0
2018-Feb-16 08:28N 35°27' E 139°42'0 0.0
2018-Feb-16 07:58N 35°27' E 139°42'0 0.0
2018-Feb-16 07:28N 35°27' E 139°42'0 0.0
2018-Feb-16 06:58N 35°27' E 139°42'0 0.0
2018-Feb-16 06:25N 35°27' E 139°42'0 0.0
2018-Feb-16 05:58N 35°27' E 139°42'0 0.0
2018-Feb-16 05:28N 35°27' E 139°42'0 0.0
2018-Feb-16 04:52N 35°27' E 139°42'0 0.0
2018-Feb-16 04:28N 35°27' E 139°42'0 0.0
2018-Feb-16 03:58N 35°27' E 139°42'0 0.0
2018-Feb-16 03:28N 35°27' E 139°42'0 0.0
2018-Feb-16 02:58N 35°27' E 139°42'0 0.0
2018-Feb-16 02:28N 35°27' E 139°42'0 0.0
2018-Feb-16 01:58N 35°27' E 139°42'0 0.0
2018-Feb-16 01:28N 35°27' E 139°42'0 0.0
2018-Feb-16 00:58N 35°27' E 139°42'0 0.0
2018-Feb-16 00:28N 35°27' E 139°42'0 0.0
2018-Feb-15 23:58N 35°27' E 139°42'0 0.0
2018-Feb-15 23:28N 35°27' E 139°42'0 0.1
2018-Feb-15 22:58N 35°27' E 139°42'0 0.0
2018-Feb-15 22:28N 35°27' E 139°42'0 0.0
2018-Feb-15 21:58N 35°27' E 139°42'0 0.0
2018-Feb-15 21:28N 35°27' E 139°42'0 0.0
2018-Feb-15 20:58N 35°27' E 139°42'0 0.0
2018-Feb-15 20:28N 35°27' E 139°42'0 0.0
2018-Feb-15 19:58N 35°27' E 139°42'  

Dump ship's entire track history